Time;durP1;ratioP1;P1;durP2;ratioP2;P2;SDS_P1;SDS_P2;PMS_P1;PMS_P2;Temp;Humidity;BMP_temperature;BMP_pressure;BME280_temperature;BME280_humidity;BME280_pressure;Samples;Min_cycle;Max_cycle;Signal;HPM_P1;HPM_P2
2023/10/19 00:01:58;;;;;;;18.33;12.02;;;;;;;-146.27;69.74;81853.91;5028652;28;20053;-68
2023/10/19 00:04:24;;;;;;;19.60;13.18;;;;;;;-146.27;69.93;81886.03;5022157;28;20076;-69
2023/10/19 00:06:50;;;;;;;18.33;13.27;;;;;;;-146.27;69.62;81865.94;5030567;28;20025;-68
2023/10/19 00:09:15;;;;;;;18.83;13.10;;;;;;;-146.27;69.30;81809.72;5026113;28;20029;-68
2023/10/19 00:11:41;;;;;;;16.50;12.50;;;;;;;-146.27;68.88;81777.56;5025797;28;20025;-68
2023/10/19 00:14:15;;;;;;;21.10;12.88;;;;;;;-146.27;68.98;81759.50;5028504;28;20521;-68
2023/10/19 00:16:46;;;;;;;16.92;13.00;;;;;;;-146.27;69.71;81809.72;5027685;28;20111;-68
2023/10/19 00:19:19;;;;;;;16.25;11.95;;;;;;;-146.27;69.35;81785.59;5027713;28;20026;-67
2023/10/19 00:21:50;;;;;;;20.88;12.90;;;;;;;-146.27;68.75;81765.53;5018664;28;20029;-67
2023/10/19 00:24:18;;;;;;;17.33;11.82;;;;;;;-146.27;68.92;81745.44;5018804;28;20029;-67
2023/10/19 00:26:44;;;;;;;17.15;10.98;;;;;;;-146.27;68.96;81727.38;5017960;28;20132;-67
2023/10/19 00:31:56;;;;;;;19.77;12.77;;;;;;;-146.27;69.52;81761.50;5027467;28;20440;-68
2023/10/19 00:34:21;;;;;;;17.15;11.90;;;;;;;-146.27;69.26;81725.34;5016084;28;20037;-68
2023/10/19 00:36:48;;;;;;;14.27;10.70;;;;;;;-146.27;69.05;81693.22;5010760;28;20034;-67
2023/10/19 00:39:16;;;;;;;14.52;11.02;;;;;;;-146.27;69.23;81711.28;5027974;28;20549;-68
2023/10/19 00:41:43;;;;;;;15.40;11.35;;;;;;;-146.27;69.38;81717.31;5030660;28;20025;-67
2023/10/19 00:44:11;;;;;;;20.30;12.27;;;;;;;-146.27;70.29;81775.56;5026413;28;20037;-68
2023/10/19 00:46:43;;;;;;;18.10;12.23;;;;;;;-146.27;69.99;81765.53;5020838;28;20038;-67
2023/10/19 00:49:14;;;;;;;15.60;11.15;;;;;;;-146.27;69.43;81715.31;5026639;28;20040;-67
2023/10/19 00:54:40;;;;;;;15.95;11.23;;;;;;;-146.27;69.35;81705.28;5028402;28;20037;-67
2023/10/19 00:57:10;;;;;;;15.63;11.43;;;;;;;-146.27;69.54;81691.22;5020967;28;20026;-67
2023/10/19 00:59:48;;;;;;;14.02;11.32;;;;;;;-146.27;69.43;81663.09;5030272;28;20100;-68
2023/10/19 01:02:31;;;;;;;14.52;11.10;;;;;;;-146.27;69.27;81689.19;5026239;28;20123;-67
2023/10/19 01:05:00;;;;;;;14.50;11.43;;;;;;;-146.27;69.39;81671.13;5028446;28;20025;-67
2023/10/19 01:07:28;;;;;;;14.25;10.80;;;;;;;-146.27;69.36;81665.09;5021680;28;20113;-67
2023/10/19 01:09:56;;;;;;;15.63;12.05;;;;;;;-146.27;69.24;81679.16;5020930;28;20087;-67
2023/10/19 01:12:25;;;;;;;15.55;11.50;;;;;;;-146.27;69.19;81636.97;5028291;28;20063;-68
2023/10/19 01:15:05;;;;;;;13.20;10.65;;;;;;;-146.27;68.97;81568.69;5027723;28;20021;-68
2023/10/19 01:17:33;;;;;;;16.02;11.48;;;;;;;-146.27;69.54;81641.00;5023216;28;20436;-68
2023/10/19 01:19:59;;;;;;;28.50;12.35;;;;;;;-146.27;69.46;81630.97;5026932;28;20021;-67
2023/10/19 01:22:26;;;;;;;17.48;12.57;;;;;;;-146.27;70.02;81649.03;5026496;28;20033;-68
2023/10/19 01:24:53;;;;;;;18.02;12.63;;;;;;;-146.27;69.64;81636.97;5022580;28;20596;-67
2023/10/19 01:27:18;;;;;;;17.20;12.57;;;;;;;-146.27;69.74;81665.09;5027120;28;20030;-67
2023/10/19 01:29:44;;;;;;;20.08;13.43;;;;;;;-146.27;70.09;81641.00;5026662;28;20960;-69
2023/10/19 01:32:11;;;;;;;17.77;12.40;;;;;;;-146.27;70.63;81620.91;5015981;28;20028;-68
2023/10/19 01:34:37;;;;;;;16.17;12.23;;;;;;;-146.27;70.32;81665.09;5029765;28;20034;-68
2023/10/19 01:37:05;;;;;;;18.38;12.10;;;;;;;-146.27;70.56;81600.84;5014573;28;20033;-68
2023/10/19 01:39:34;;;;;;;17.08;10.90;;;;;;;-146.27;70.32;81510.44;5021394;28;20371;-68
2023/10/19 01:42:00;;;;;;;15.05;11.35;;;;;;;-146.27;70.61;81532.53;5015854;28;20112;-68
2023/10/19 01:44:26;;;;;;;16.27;10.70;;;;;;;-146.27;70.85;81458.22;5012677;28;20165;-68
2023/10/19 01:46:52;;;;;;;13.80;9.45;;;;;;;-146.27;71.60;81476.31;5026314;28;20037;-68
2023/10/19 01:49:26;;;;;;;13.45;8.73;;;;;;;-146.27;71.21;81385.94;5029570;28;20066;-68
2023/10/19 01:51:53;;;;;;;12.10;8.40;;;;;;;-146.27;71.23;81395.97;5022139;28;20844;-68
2023/10/19 01:54:23;;;;;;;14.30;8.13;;;;;;;-146.27;72.34;81404.00;5010249;28;20051;-68
2023/10/19 01:56:56;;;;;;;10.48;6.85;;;;;;;-146.27;71.39;81333.72;5023540;28;20167;-68
2023/10/19 01:59:27;;;;;;;9.18;6.22;;;;;;;-146.27;71.89;81359.81;5029889;28;20037;-68
2023/10/19 02:01:57;;;;;;;12.38;5.25;;;;;;;-146.27;72.02;81247.38;5026173;28;20029;-68
2023/10/19 02:04:23;;;;;;;11.63;4.82;;;;;;;-146.27;71.36;81273.47;5022059;28;20029;-68
2023/10/19 02:06:51;;;;;;;5.13;3.97;;;;;;;-146.27;72.23;81341.75;5032545;28;20063;-68
2023/10/19 02:09:17;;;;;;;8.43;3.70;;;;;;;-146.27;72.04;81243.34;5032850;28;20436;-68
2023/10/19 02:11:47;;;;;;;9.82;3.55;;;;;;;-146.27;71.57;81291.53;5028417;28;20033;-68
2023/10/19 02:14:18;;;;;;;8.07;3.22;;;;;;;-146.27;71.88;81271.47;5029467;28;20437;-68
2023/10/19 02:16:50;;;;;;;10.18;3.10;;;;;;;-146.27;71.64;81247.38;5027948;28;20037;-68
2023/10/19 02:19:16;;;;;;;16.75;3.15;;;;;;;-146.27;71.11;81195.16;5020817;28;20080;-68
2023/10/19 02:21:42;;;;;;;6.55;2.20;;;;;;;-146.27;71.97;81245.34;5022889;28;20394;-68
2023/10/19 02:24:09;;;;;;;9.13;2.15;;;;;;;-146.27;72.21;81233.31;5020891;28;20246;-68
2023/10/19 02:26:36;;;;;;;8.68;2.00;;;;;;;-146.27;71.55;81201.19;5014273;28;20607;-68
2023/10/19 02:29:07;;;;;;;9.43;2.13;;;;;;;-146.27;71.19;81171.06;5027380;28;20057;-68
2023/10/19 02:31:32;;;;;;;7.15;1.88;;;;;;;-146.27;71.13;81219.25;5033167;28;20065;-68
2023/10/19 02:33:59;;;;;;;4.78;1.92;;;;;;;-146.27;71.00;81181.09;5027876;28;20444;-68
2023/10/19 02:36:29;;;;;;;3.75;1.80;;;;;;;-146.27;70.68;81090.72;5032312;28;20037;-68
2023/10/19 02:38:58;;;;;;;5.35;2.20;;;;;;;-146.27;70.76;81126.88;5031302;28;20018;-68
2023/10/19 02:41:24;;;;;;;3.80;1.55;;;;;;;-146.27;70.75;81150.97;5026737;28;20400;-69
2023/10/19 02:44:07;;;;;;;6.50;1.63;;;;;;;-146.27;70.88;81193.16;5019716;28;20106;-68
2023/10/19 02:46:33;;;;;;;6.57;1.58;;;;;;;-146.27;70.68;81152.97;5023621;28;20029;-68
2023/10/19 02:49:13;;;;;;;1.92;1.55;;;;;;;-146.27;70.95;81142.94;5026164;28;20028;-68
2023/10/19 02:51:40;;;;;;;9.63;1.55;;;;;;;-146.27;70.62;81122.84;5023151;28;20033;-68
2023/10/19 02:54:07;;;;;;;3.03;1.17;;;;;;;-146.27;70.70;81185.13;5033450;28;20068;-68
2023/10/19 02:56:35;;;;;;;4.97;1.27;;;;;;;-146.27;70.79;81146.97;5025212;28;20423;-68
2023/10/19 02:59:03;;;;;;;3.47;1.33;;;;;;;-146.27;71.04;81175.06;5016301;28;20014;-68
2023/10/19 03:01:31;;;;;;;3.17;1.23;;;;;;;-146.27;70.84;81171.06;5023335;28;20040;-68
2023/10/19 03:04:00;;;;;;;4.57;1.33;;;;;;;-146.27;71.08;81171.06;5022469;28;20033;-68
2023/10/19 03:06:32;;;;;;;4.75;1.10;;;;;;;-146.27;70.98;81122.84;5031032;28;20025;-68
2023/10/19 03:09:00;;;;;;;5.32;1.35;;;;;;;-146.27;71.23;81207.19;5029095;28;20021;-68
2023/10/19 03:11:27;;;;;;;5.30;1.25;;;;;;;-146.27;72.27;81301.59;5032075;28;20116;-68
2023/10/19 03:13:57;;;;;;;9.77;2.58;;;;;;;-146.27;72.76;81283.50;5031027;28;20025;-68
2023/10/19 03:16:23;;;;;;;7.95;1.70;;;;;;;-146.27;72.81;81267.44;5022799;28;20042;-68
2023/10/19 03:18:50;;;;;;;10.75;1.50;;;;;;;-146.27;71.57;81167.03;5028189;28;20034;-68
2023/10/19 03:21:16;;;;;;;7.07;1.85;;;;;;;-146.27;71.36;81207.19;5018078;28;20395;-68
2023/10/19 03:23:42;;;;;;;4.47;1.30;;;;;;;-146.27;71.20;81179.09;5024623;28;20555;-68
2023/10/19 03:26:30;;;;;;;7.75;1.15;;;;;;;-146.27;70.89;81221.25;5015219;28;20021;-68
2023/10/19 03:28:56;;;;;;;4.07;1.10;;;;;;;-146.27;71.05;81227.28;5018015;28;20030;-68
2023/10/19 03:31:25;;;;;;;3.60;1.30;;;;;;;-146.27;71.53;81271.47;5018194;28;20113;-68
2023/10/19 03:33:54;;;;;;;5.95;1.20;;;;;;;-146.27;71.46;81301.59;5026391;28;20096;-68
2023/10/19 03:36:28;;;;;;;5.35;1.20;;;;;;;-146.27;70.67;81187.13;5011675;28;20041;-68
2023/10/19 03:38:54;;;;;;;6.43;1.30;;;;;;;-146.27;70.45;81215.22;5025908;28;20033;-68
2023/10/19 03:41:27;;;;;;;1.25;1.08;;;;;;;-146.27;70.41;81227.28;5025663;28;20037;-68
2023/10/19 03:43:57;;;;;;;4.03;1.57;;;;;;;-146.27;70.96;81313.63;5021507;28;20029;-68
2023/10/19 03:46:28;;;;;;;5.13;1.00;;;;;;;-146.27;70.59;81205.19;5025863;28;21114;-68
2023/10/19 03:48:58;;;;;;;6.35;1.30;;;;;;;-146.27;70.73;81259.41;5014165;28;20395;-68
2023/10/19 03:51:26;;;;;;;3.65;1.38;;;;;;;-146.27;70.29;81227.28;5014056;28;20026;-68
2023/10/19 03:53:55;;;;;;;5.78;1.10;;;;;;;-146.27;70.12;81231.31;5024164;28;20171;-68
2023/10/19 03:56:21;;;;;;;7.78;1.00;;;;;;;-146.27;70.60;81247.38;5030170;28;20056;-68
2023/10/19 03:58:50;;;;;;;6.38;1.00;;;;;;;-146.27;70.88;81279.50;5016173;28;20623;-68
2023/10/19 04:01:16;;;;;;;7.68;1.13;;;;;;;-146.27;70.43;81283.50;5023460;28;20114;-68
2023/10/19 04:03:43;;;;;;;3.95;1.05;;;;;;;-146.27;70.32;81245.34;5026971;28;20068;-68
2023/10/19 04:06:14;;;;;;;6.07;1.17;;;;;;;-146.27;69.75;81255.41;5029188;28;20400;-68
2023/10/19 04:08:42;;;;;;;5.45;1.08;;;;;;;-146.27;69.96;81249.38;5016422;28;20030;-68
2023/10/19 04:11:11;;;;;;;6.25;1.13;;;;;;;-146.27;69.32;81197.16;5019922;28;20037;-68
2023/10/19 04:13:38;;;;;;;8.98;1.30;;;;;;;-146.27;69.51;81215.22;5027438;28;20033;-68
2023/10/19 04:16:05;;;;;;;6.05;1.40;;;;;;;-146.27;71.00;81339.75;5029540;28;20147;-68
2023/10/19 04:18:31;;;;;;;3.42;0.93;;;;;;;-146.27;70.45;81317.66;5029920;28;20025;-68
2023/10/19 04:20:57;;;;;;;9.82;1.20;;;;;;;-146.27;69.72;81211.22;5027618;28;20033;-68
2023/10/19 04:23:27;;;;;;;6.07;1.52;;;;;;;-146.27;69.74;81293.56;5024990;28;20071;-67
2023/10/19 04:25:56;;;;;;;6.22;1.10;;;;;;;-146.27;69.57;81267.44;5042376;28;20067;-67
2023/10/19 04:28:30;;;;;;;9.30;1.20;;;;;;;-146.27;69.46;81243.34;5022778;28;20245;-67
2023/10/19 04:31:00;;;;;;;2.28;0.98;;;;;;;-146.27;68.79;81203.19;5028132;28;20022;-67
2023/10/19 04:33:27;;;;;;;7.80;1.17;;;;;;;-146.27;69.89;81313.63;5020992;28;20026;-68
2023/10/19 04:35:55;;;;;;;5.75;1.08;;;;;;;-146.27;70.37;81373.88;5011568;28;20026;-67
2023/10/19 04:38:22;;;;;;;5.18;1.25;;;;;;;-146.27;69.70;81345.78;5016642;28;20025;-68
2023/10/19 04:40:48;;;;;;;16.58;1.60;;;;;;;-146.27;69.48;81285.53;5026035;28;20107;-68
2023/10/19 04:43:13;;;;;;;7.63;1.83;;;;;;;-146.27;68.05;81223.25;5025578;28;20029;-68
2023/10/19 04:45:44;;;;;;;5.97;1.35;;;;;;;-146.27;68.05;81146.97;5031326;28;20025;-69
2023/10/19 04:48:10;;;;;;;4.05;1.23;;;;;;;-146.27;67.77;81175.06;5020973;28;20030;-69
2023/10/19 04:50:35;;;;;;;4.45;1.02;;;;;;;-146.27;68.02;81167.03;5024549;28;20026;-69
2023/10/19 04:53:00;;;;;;;5.85;1.50;;;;;;;-146.27;68.29;81259.41;5024683;28;20104;-69
2023/10/19 04:55:27;;;;;;;6.22;1.17;;;;;;;-146.27;68.77;81291.53;5027731;28;20068;-69
2023/10/19 04:57:56;;;;;;;4.38;1.20;;;;;;;-146.27;66.56;81090.72;5025414;28;20032;-68
2023/10/19 05:00:24;;;;;;;5.70;1.58;;;;;;;-146.27;66.56;81116.84;5015970;28;20087;-67
2023/10/19 05:02:51;;;;;;;4.03;1.20;;;;;;;-146.27;66.45;81056.59;5027309;28;20017;-67
2023/10/19 05:05:18;;;;;;;5.45;1.52;;;;;;;-146.27;66.67;81122.84;5025398;28;20029;-67
2023/10/19 05:07:43;;;;;;;8.38;1.10;;;;;;;-146.27;67.39;81163.03;5022747;28;20037;-67
2023/10/19 05:10:09;;;;;;;6.10;1.23;;;;;;;-146.27;66.44;81120.84;5017948;28;20037;-68
2023/10/19 05:12:34;;;;;;;7.25;1.15;;;;;;;-146.27;66.48;81132.91;5026338;28;20021;-66
2023/10/19 05:15:00;;;;;;;2.05;1.00;;;;;;;-146.27;66.66;81100.75;5022293;28;20051;-69
2023/10/19 05:17:27;;;;;;;10.02;2.15;;;;;;;-146.27;66.95;81152.97;5023098;28;20021;-67
2023/10/19 05:19:52;;;;;;;14.65;1.38;;;;;;;-146.27;66.37;81094.75;5016607;28;20061;-67
2023/10/19 05:22:18;;;;;;;5.55;1.40;;;;;;;-146.27;67.08;81271.47;5012000;28;20034;-68
2023/10/19 05:24:44;;;;;;;2.40;0.90;;;;;;;-146.27;66.73;81155.00;5021240;28;20417;-67
2023/10/19 05:27:09;;;;;;;3.22;1.10;;;;;;;-146.27;66.61;81155.00;5024020;28;20025;-67
2023/10/19 05:29:35;;;;;;;6.88;0.93;;;;;;;-146.27;67.64;81303.59;5027378;28;20021;-68
2023/10/19 05:32:03;;;;;;;4.43;1.10;;;;;;;-146.27;67.08;81159.00;5026623;28;20032;-68
2023/10/19 05:34:29;;;;;;;6.03;1.17;;;;;;;-146.27;65.85;81078.69;5019359;28;20037;-67
2023/10/19 05:36:58;;;;;;;7.00;2.00;;;;;;;-146.27;65.31;81026.47;5019869;28;20030;-68
2023/10/19 05:39:27;;;;;;;11.88;1.70;;;;;;;-146.27;65.68;81106.78;5012609;28;20040;-68
2023/10/19 05:41:53;;;;;;;8.73;1.00;;;;;;;-146.27;65.93;81126.88;5017904;28;20421;-69
2023/10/19 05:44:19;;;;;;;9.95;1.48;;;;;;;-146.27;65.67;81104.78;5025735;28;20041;-68
2023/10/19 05:46:46;;;;;;;6.60;1.15;;;;;;;-146.27;65.45;81046.53;5018285;28;20028;-69
2023/10/19 05:49:12;;;;;;;3.72;1.40;;;;;;;-146.27;65.21;81058.59;5019789;28;20067;-68
2023/10/19 05:51:39;;;;;;;4.00;1.17;;;;;;;-146.27;64.29;80938.09;5015124;28;20033;-69
2023/10/19 05:54:05;;;;;;;5.55;0.80;;;;;;;-146.27;65.00;80984.28;5027440;28;20036;-68
2023/10/19 05:56:31;;;;;;;4.97;1.05;;;;;;;-146.27;64.07;80948.16;5024934;28;20033;-69
2023/10/19 05:58:56;;;;;;;4.53;1.13;;;;;;;-146.27;63.09;80863.81;5016902;28;20504;-68
2023/10/19 06:01:23;;;;;;;4.80;1.10;;;;;;;-146.27;63.39;80926.06;5027534;28;20025;-67
2023/10/19 06:03:48;;;;;;;5.65;1.27;;;;;;;-146.27;63.15;80841.72;5028880;28;20040;-66
2023/10/19 06:06:14;;;;;;;9.80;1.10;;;;;;;-146.27;62.84;80833.69;5016515;28;20033;-67
2023/10/19 06:08:42;;;;;;;12.07;1.85;;;;;;;-146.27;62.81;80781.47;5014479;28;20100;-67
2023/10/19 06:11:07;;;;;;;3.72;0.90;;;;;;;-146.27;61.74;80809.59;5022234;28;20381;-67
2023/10/19 06:13:33;;;;;;;4.72;1.00;;;;;;;-146.27;60.99;80693.13;5019213;28;20034;-66
2023/10/19 06:15:58;;;;;;;5.88;1.42;;;;;;;-146.27;60.86;80715.22;5019666;28;20061;-67
2023/10/19 06:18:24;;;;;;;7.85;0.93;;;;;;;-146.27;60.60;80646.94;5021606;28;20029;-68
2023/10/19 06:20:51;;;;;;;9.40;1.38;;;;;;;-146.27;59.60;80652.97;5029276;28;20056;-67
2023/10/19 06:23:17;;;;;;;8.85;1.17;;;;;;;-146.27;59.66;80592.72;5029876;28;20055;-67
2023/10/19 06:25:43;;;;;;;11.32;1.48;;;;;;;-146.27;60.39;80614.81;5012013;28;20033;-67
2023/10/19 06:28:10;;;;;;;7.30;1.50;;;;;;;-146.27;59.38;80520.44;5021637;28;20077;-67
2023/10/19 06:30:36;;;;;;;8.82;1.50;;;;;;;-146.27;59.82;80572.66;5027419;28;20057;-67
2023/10/19 06:33:02;;;;;;;3.20;1.10;;;;;;;-146.27;60.51;80620.84;5011134;28;20048;-67
2023/10/19 06:35:30;;;;;;;5.30;1.50;;;;;;;-146.27;59.25;80500.38;5014486;28;20082;-67
2023/10/19 06:37:55;;;;;;;4.70;1.13;;;;;;;-146.27;58.74;80494.34;5013001;28;20025;-68
2023/10/19 06:40:22;;;;;;;4.78;0.90;;;;;;;-146.27;59.87;80652.97;5023223;28;20433;-68
2023/10/19 06:42:49;;;;;;;5.47;2.05;;;;;;;-146.27;59.43;80580.69;5029300;28;20079;-69
2023/10/19 06:45:15;;;;;;;9.98;1.42;;;;;;;-146.27;57.53;80383.91;5025969;28;20037;-68
2023/10/19 06:47:42;;;;;;;6.00;1.50;;;;;;;-146.27;56.51;80251.41;5017216;28;20084;-69
2023/10/19 06:50:10;;;;;;;12.13;1.50;;;;;;;-146.27;56.67;80309.63;5027792;28;20029;-73
2023/10/19 06:52:36;;;;;;;11.77;1.95;;;;;;;-146.27;56.08;80239.34;5015862;28;20025;-72
2023/10/19 06:55:04;;;;;;;14.82;3.15;;;;;;;-146.27;57.17;80353.81;5033489;28;20032;-72
2023/10/19 06:57:30;;;;;;;10.75;2.30;;;;;;;-146.27;56.40;80269.47;5032132;28;20049;-73
2023/10/19 06:59:56;;;;;;;8.45;1.77;;;;;;;-146.27;57.02;80337.75;5033245;28;20539;-72
2023/10/19 07:02:21;;;;;;;8.07;1.90;;;;;;;-146.27;54.88;80106.84;5033474;28;20025;-72
2023/10/19 07:04:47;;;;;;;26.73;4.65;;;;;;;-146.27;54.12;79998.44;5032394;28;20473;-72
2023/10/19 07:07:13;;;;;;;25.52;5.25;;;;;;;-146.27;54.26;80004.47;5030573;28;20033;-72
2023/10/19 07:09:39;;;;;;;3.60;0.95;;;;;;;-146.27;53.07;79974.34;5032742;28;20032;-72
2023/10/19 07:12:05;;;;;;;6.88;1.30;;;;;;;-146.27;52.72;79894.03;5033209;28;20022;-72
2023/10/19 07:14:32;;;;;;;10.80;2.65;;;;;;;-146.27;51.69;79825.78;5033205;28;20470;-72
2023/10/19 07:16:59;;;;;;;10.35;1.23;;;;;;;-146.27;49.38;79514.63;5029485;28;20149;-71
2023/10/19 07:19:25;;;;;;;8.63;1.55;;;;;;;-146.27;46.89;79163.34;5032277;28;20469;-71
2023/10/19 07:21:57;;;;;;;6.50;1.52;;;;;;;-146.27;46.04;79067.00;5032997;28;20037;-72
2023/10/19 07:24:23;;;;;;;9.70;2.13;;;;;;;-146.27;41.81;78075.59;5013502;28;20022;-71
2023/10/19 07:27:07;;;;;;;9.23;2.42;;;;;;;-146.27;62.90;81130.88;5014170;28;20455;-72
2023/10/19 07:29:35;;;;;;;7.03;1.25;;;;;;;-146.27;76.65;81912.16;5032370;28;20022;-71
2023/10/19 07:32:02;;;;;;;4.18;1.20;;;;;;;-146.27;80.56;82004.53;5031832;28;20036;-71
2023/10/19 07:34:33;;;;;;;14.88;1.38;;;;;;;-146.27;82.46;82106.97;5030946;28;20025;-72
2023/10/19 07:36:59;;;;;;;6.03;1.10;;;;;;;-146.27;83.31;82127.06;5030140;28;20485;-72
2023/10/19 07:39:26;;;;;;;9.10;1.95;;;;;;;-146.27;83.66;82115.00;5018227;28;20022;-71
2023/10/19 07:41:52;;;;;;;7.18;1.40;;;;;;;-146.27;84.13;82139.13;5016976;28;20574;-71
2023/10/19 07:44:17;;;;;;;4.47;1.40;;;;;;;-146.27;83.86;82066.81;5025543;28;20025;-71
2023/10/19 07:46:44;;;;;;;7.93;1.50;;;;;;;-146.27;83.88;82106.97;5031554;28;20112;-71
2023/10/19 07:49:14;;;;;;;7.30;1.50;;;;;;;-146.27;84.48;82072.84;5030361;28;20033;-71
2023/10/19 07:51:45;;;;;;;13.23;2.13;;;;;;;-146.27;85.10;82094.94;5017033;28;20026;-71
2023/10/19 07:54:12;;;;;;;9.80;1.30;;;;;;;-146.27;85.05;82119.03;5013861;28;20639;-71
2023/10/19 07:56:37;;;;;;;12.60;1.60;;;;;;;-146.27;85.08;82123.06;5032384;28;20029;-71
2023/10/19 07:59:03;;;;;;;7.65;1.35;;;;;;;-146.27;85.18;82115.00;5032115;28;20381;-71
2023/10/19 08:01:28;;;;;;;9.93;1.40;;;;;;;-146.27;84.72;82090.91;5029056;28;20497;-72
2023/10/19 08:03:54;;;;;;;3.30;1.30;;;;;;;-146.27;84.71;82038.69;5030980;28;20036;-70
2023/10/19 08:06:20;;;;;;;8.80;1.45;;;;;;;-146.27;84.71;82016.59;5032271;28;20036;-71
2023/10/19 08:08:46;;;;;;;4.28;1.27;;;;;;;-146.27;84.99;82062.78;5019973;28;20033;-73
2023/10/19 08:11:12;;;;;;;7.55;1.65;;;;;;;-146.27;84.95;82008.56;5012519;28;20109;-72
2023/10/19 08:13:39;;;;;;;3.53;1.58;;;;;;;-146.27;85.15;82022.63;5010924;28;20029;-72
2023/10/19 08:16:07;;;;;;;10.30;1.52;;;;;;;-146.27;84.96;82042.69;5024361;28;20128;-72
2023/10/19 08:18:35;;;;;;;10.25;2.20;;;;;;;-146.27;85.06;82010.56;5031763;28;20770;-72
2023/10/19 08:21:01;;;;;;;7.32;1.70;;;;;;;-146.27;85.02;82036.69;5031818;28;20056;-71
2023/10/19 08:23:27;;;;;;;10.57;1.95;;;;;;;-146.27;85.18;82018.59;5021138;28;20034;-72
2023/10/19 08:25:53;;;;;;;10.57;2.40;;;;;;;-146.27;85.29;82014.59;5013239;28;20036;-71
2023/10/19 08:28:18;;;;;;;8.13;2.08;;;;;;;-146.27;85.16;82016.59;5028544;28;20258;-72
2023/10/19 08:30:56;;;;;;;9.25;2.10;;;;;;;-146.27;85.40;81988.47;5031536;28;20097;-72
2023/10/19 08:33:22;;;;;;;7.50;1.73;;;;;;;-146.27;85.15;82052.75;5019153;28;20045;-72
2023/10/19 08:35:47;;;;;;;11.48;2.47;;;;;;;-146.27;85.06;82034.66;5011698;28;20497;-71
2023/10/19 08:38:13;;;;;;;11.77;1.80;;;;;;;-146.27;84.99;82038.69;5012038;28;20034;-72
2023/10/19 08:40:39;;;;;;;8.18;1.80;;;;;;;-146.27;85.17;82042.69;5010246;28;20355;-72
2023/10/19 08:43:05;;;;;;;9.48;2.08;;;;;;;-146.27;85.07;82002.53;5011485;28;20022;-72
2023/10/19 08:45:34;;;;;;;9.30;2.42;;;;;;;-146.27;84.99;81954.31;5011504;28;20028;-73
2023/10/19 08:48:01;;;;;;;9.48;2.33;;;;;;;-146.27;84.91;81882.00;5016872;28;20026;-74
2023/10/19 08:50:29;;;;;;;10.73;2.80;;;;;;;-146.27;84.58;81958.34;5031082;28;20479;-71
2023/10/19 08:52:57;;;;;;;7.72;1.80;;;;;;;-146.27;84.62;81914.16;5031168;28;20111;-72
2023/10/19 08:55:23;;;;;;;10.10;2.22;;;;;;;-146.27;84.64;81863.94;5029875;28;20021;-72
2023/10/19 08:57:49;;;;;;;6.40;1.80;;;;;;;-146.27;84.29;81890.06;5011303;28;20053;-72
2023/10/19 09:00:19;;;;;;;6.13;1.83;;;;;;;-146.27;84.19;81853.91;5011336;28;20547;-73
2023/10/19 09:02:47;;;;;;;12.43;2.47;;;;;;;-146.27;83.83;81855.91;5020337;28;20025;-74
2023/10/19 09:05:22;;;;;;;7.50;1.83;;;;;;;-146.27;83.84;81823.78;5018476;28;20385;-74
2023/10/19 09:07:54;;;;;;;9.93;2.10;;;;;;;-146.27;83.78;81821.75;5026720;28;20551;-73
2023/10/19 09:10:25;;;;;;;12.02;2.20;;;;;;;-146.27;83.50;81815.72;5030328;28;20018;-74
2023/10/19 09:13:09;;;;;;;11.55;2.03;;;;;;;-146.27;83.36;81785.59;5030896;28;20534;-74
2023/10/19 09:15:38;;;;;;;11.77;2.50;;;;;;;-146.27;83.37;81837.81;5030831;28;20050;-73
2023/10/19 09:18:16;;;;;;;7.57;2.05;;;;;;;-146.27;83.40;81825.78;5029901;28;20108;-74
2023/10/19 09:20:52;;;;;;;10.43;1.73;;;;;;;-146.27;83.56;81747.44;5029398;28;20159;-73
2023/10/19 09:23:25;;;;;;;9.45;1.90;;;;;;;-146.27;83.31;81765.53;5030647;28;20088;-74
2023/10/19 09:25:54;;;;;;;7.97;1.70;;;;;;;-146.27;83.12;81757.50;5028891;28;20092;-74
2023/10/19 09:28:21;;;;;;;11.60;2.42;;;;;;;-146.27;82.88;81695.22;5028567;28;20527;-73
2023/10/19 09:30:48;;;;;;;15.95;2.65;;;;;;;-146.27;82.90;81675.16;5030663;28;20013;-73
2023/10/19 09:33:17;;;;;;;11.90;2.63;;;;;;;-146.27;82.92;81673.13;5030557;28;20435;-73
2023/10/19 09:35:56;;;;;;;12.40;2.17;;;;;;;-146.27;82.77;81665.09;5030539;28;20032;-73
2023/10/19 09:38:22;;;;;;;11.20;2.25;;;;;;;-146.27;82.70;81721.34;5029120;28;20036;-73
2023/10/19 09:40:51;;;;;;;14.23;2.28;;;;;;;-146.27;81.95;81659.06;5016404;28;20017;-74
2023/10/19 09:43:27;;;;;;;15.23;2.28;;;;;;;-146.27;81.99;81618.91;5026546;28;20025;-73
2023/10/19 09:45:57;;;;;;;10.45;2.53;;;;;;;-146.27;81.96;81651.03;5021106;28;20023;-73
2023/10/19 09:48:22;;;;;;;6.63;1.85;;;;;;;-146.27;81.84;81651.03;5029859;28;20030;-71
2023/10/19 09:50:57;;;;;;;9.60;2.20;;;;;;;-146.27;81.75;81643.00;5011165;28;20469;-73
2023/10/19 09:53:26;;;;;;;9.95;1.95;;;;;;;-146.27;81.73;81655.06;5017342;28;20104;-71
2023/10/19 09:55:56;;;;;;;9.90;2.38;;;;;;;-146.27;81.63;81649.03;5011419;28;20030;-72
2023/10/19 09:58:29;;;;;;;13.57;2.88;;;;;;;-146.27;81.21;81608.88;5019911;28;20086;-72
2023/10/19 10:00:57;;;;;;;19.85;2.50;;;;;;;-146.27;81.20;81667.09;5015665;28;20398;-72
2023/10/19 10:03:51;;;;;;;8.63;2.22;;;;;;;-146.27;81.48;81608.88;5017351;28;20077;-71
2023/10/19 10:06:28;;;;;;;14.02;2.47;;;;;;;-146.27;81.27;81620.91;5016784;28;20133;-71
2023/10/19 10:08:53;;;;;;;11.95;2.35;;;;;;;-146.27;81.27;81608.88;5028329;28;20026;-72
2023/10/19 10:11:21;;;;;;;11.55;2.17;;;;;;;-146.27;81.28;81657.06;5029945;28;20473;-72
2023/10/19 10:13:50;;;;;;;7.82;2.45;;;;;;;-146.27;81.35;81634.97;5029053;28;20025;-71
2023/10/19 10:16:22;;;;;;;13.45;2.20;;;;;;;-146.27;81.41;81671.13;5028556;28;20041;-72
2023/10/19 10:18:50;;;;;;;8.40;2.17;;;;;;;-146.27;81.25;81673.13;5028874;28;20485;-72
2023/10/19 10:21:24;;;;;;;17.00;3.83;;;;;;;-146.27;81.01;81596.81;5030240;28;20036;-72
2023/10/19 10:23:57;;;;;;;13.25;2.40;;;;;;;-146.27;81.23;81636.97;5031840;28;20107;-73
2023/10/19 10:26:35;;;;;;;8.48;2.25;;;;;;;-146.27;81.27;81560.66;5034085;28;20035;-72
2023/10/19 10:29:19;;;;;;;13.68;2.63;;;;;;;-146.27;82.02;81636.97;5014350;28;20076;-72
2023/10/19 10:31:46;;;;;;;12.27;2.67;;;;;;;-146.27;81.89;81600.84;5027226;28;20040;-73
2023/10/19 10:34:38;;;;;;;15.65;3.00;;;;;;;-146.27;82.18;81598.81;5034261;28;20048;-71
2023/10/19 10:37:10;;;;;;;13.35;2.33;;;;;;;-146.27;81.92;81524.50;5032306;28;20029;-73
2023/10/19 10:39:37;;;;;;;16.25;2.83;;;;;;;-146.27;82.09;81480.31;5033911;28;20036;-72
2023/10/19 10:42:05;;;;;;;14.27;3.17;;;;;;;-146.27;82.43;81379.91;5033736;28;20370;-71
2023/10/19 10:44:40;;;;;;;14.40;3.38;;;;;;;-146.27;81.11;81311.63;5027954;28;20433;-72
2023/10/19 10:47:11;;;;;;;17.65;3.00;;;;;;;-146.27;79.93;81267.44;5025043;28;20022;-72
2023/10/19 10:49:56;;;;;;;12.88;2.60;;;;;;;-146.27;78.19;81243.34;5033702;28;20029;-72
2023/10/19 10:52:25;;;;;;;13.57;2.50;;;;;;;-146.27;78.08;81263.44;5033626;28;20087;-72
2023/10/19 10:54:50;;;;;;;9.98;2.40;;;;;;;-146.27;77.37;81273.47;5032688;28;20027;-72
2023/10/19 10:57:16;;;;;;;7.53;2.22;;;;;;;-146.27;77.45;81311.63;5023106;28;20112;-72
2023/10/19 10:59:41;;;;;;;10.65;2.13;;;;;;;-146.27;77.44;81347.78;5029465;28;20053;-73
2023/10/19 11:02:21;;;;;;;14.02;1.88;;;;;;;-146.27;77.60;81287.53;5013546;28;20029;-74
2023/10/19 11:04:47;;;;;;;8.23;2.08;;;;;;;-146.27;77.52;81247.38;5013488;28;20037;-74
2023/10/19 11:07:19;;;;;;;8.88;2.30;;;;;;;-146.27;77.17;81211.22;5024520;28;20032;-73
2023/10/19 11:09:46;;;;;;;10.73;2.95;;;;;;;-146.27;76.09;81008.41;5023072;28;20025;-74
2023/10/19 11:12:13;;;;;;;9.35;1.88;;;;;;;-146.27;74.19;80992.31;5016987;28;20053;-74
2023/10/19 11:14:53;;;;;;;13.25;1.92;;;;;;;-146.27;74.08;81026.47;5033146;28;20030;-73
2023/10/19 11:17:19;;;;;;;8.98;2.05;;;;;;;-146.27;73.76;80918.03;5031194;28;20375;-74
2023/10/19 11:19:44;;;;;;;7.97;1.90;;;;;;;-146.27;74.21;80773.44;5033087;28;20096;-72
2023/10/19 11:22:11;;;;;;;9.85;1.92;;;;;;;-146.27;71.99;80757.38;5016915;28;20030;-72
2023/10/19 11:24:39;;;;;;;12.80;2.45;;;;;;;-146.27;71.83;80713.22;5029067;28;20029;-71